sensor_id;sensor_type;location;lat;lon;timestamp;pressure;altitude;pressure_sealevel;temperature;humidity
74578;BME280;75151;49.086;33.418;2024-02-23T00:00:33;100892.56;;;0.21;58.16
74578;BME280;75151;49.086;33.418;2024-02-23T00:02:59;100891.38;;;-0.13;58.66
74578;BME280;75151;49.086;33.418;2024-02-23T00:05:26;100901.81;;;0.35;57.22
74578;BME280;75151;49.086;33.418;2024-02-23T00:07:53;100899.47;;;-0.28;58.03
74578;BME280;75151;49.086;33.418;2024-02-23T00:10:20;100887.34;;;0.04;58.84
74578;BME280;75151;49.086;33.418;2024-02-23T00:12:46;100885.19;;;0.06;57.72
74578;BME280;75151;49.086;33.418;2024-02-23T00:15:16;100882.44;;;0.01;56.31
74578;BME280;75151;49.086;33.418;2024-02-23T00:17:43;100879.09;;;-0.36;57.22
74578;BME280;75151;49.086;33.418;2024-02-23T00:20:10;100880.34;;;0.59;55.92
74578;BME280;75151;49.086;33.418;2024-02-23T00:22:41;100881.63;;;-0.09;59.36
74578;BME280;75151;49.086;33.418;2024-02-23T00:25:08;100888.94;;;-0.20;59.61
74578;BME280;75151;49.086;33.418;2024-02-23T00:27:35;100865.81;;;-0.99;59.21
74578;BME280;75151;49.086;33.418;2024-02-23T00:30:03;100880.19;;;-0.37;58.36
74578;BME280;75151;49.086;33.418;2024-02-23T00:32:30;100878.75;;;-0.60;59.77
74578;BME280;75151;49.086;33.418;2024-02-23T00:34:57;100880.97;;;-0.98;61.02
74578;BME280;75151;49.086;33.418;2024-02-23T00:37:24;100869.75;;;0.32;58.05
74578;BME280;75151;49.086;33.418;2024-02-23T00:39:51;100875.66;;;0.09;57.83
74578;BME280;75151;49.086;33.418;2024-02-23T00:42:18;100880.22;;;-0.89;59.78
74578;BME280;75151;49.086;33.418;2024-02-23T00:44:47;100885.50;;;-0.67;61.73
74578;BME280;75151;49.086;33.418;2024-02-23T00:47:13;100875.19;;;0.42;57.34
74578;BME280;75151;49.086;33.418;2024-02-23T00:49:40;100888.78;;;-0.50;58.42
74578;BME280;75151;49.086;33.418;2024-02-23T00:52:07;100890.94;;;-0.62;60.61
74578;BME280;75151;49.086;33.418;2024-02-23T00:54:34;100884.03;;;-0.85;61.05
74578;BME280;75151;49.086;33.418;2024-02-23T00:57:00;100895.53;;;-1.09;62.09
74578;BME280;75151;49.086;33.418;2024-02-23T00:59:27;100893.50;;;-0.30;59.27
74578;BME280;75151;49.086;33.418;2024-02-23T01:01:55;100892.94;;;-0.32;59.51
74578;BME280;75151;49.086;33.418;2024-02-23T01:04:22;100893.66;;;-1.09;60.54
74578;BME280;75151;49.086;33.418;2024-02-23T01:06:49;100898.03;;;-0.46;61.46
74578;BME280;75151;49.086;33.418;2024-02-23T01:09:16;100895.66;;;-0.89;62.63
74578;BME280;75151;49.086;33.418;2024-02-23T01:11:47;100889.34;;;-0.48;62.12
74578;BME280;75151;49.086;33.418;2024-02-23T01:14:15;100901.22;;;-0.64;60.02
74578;BME280;75151;49.086;33.418;2024-02-23T01:16:41;100897.97;;;-0.61;60.86
74578;BME280;75151;49.086;33.418;2024-02-23T01:19:08;100886.56;;;-1.52;61.71
74578;BME280;75151;49.086;33.418;2024-02-23T01:21:36;100880.13;;;-0.52;61.12
74578;BME280;75151;49.086;33.418;2024-02-23T01:24:03;100881.53;;;-0.39;59.92
74578;BME280;75151;49.086;33.418;2024-02-23T01:26:30;100873.03;;;-1.15;61.88
74578;BME280;75151;49.086;33.418;2024-02-23T01:28:57;100871.31;;;-0.12;61.45
74578;BME280;75151;49.086;33.418;2024-02-23T01:31:24;100869.56;;;-1.05;61.25
74578;BME280;75151;49.086;33.418;2024-02-23T01:33:51;100864.19;;;-0.23;61.42
74578;BME280;75151;49.086;33.418;2024-02-23T01:36:18;100875.75;;;-1.10;61.74
74578;BME280;75151;49.086;33.418;2024-02-23T01:38:45;100864.59;;;-0.72;60.84
74578;BME280;75151;49.086;33.418;2024-02-23T01:41:11;100860.34;;;-1.04;61.72
74578;BME280;75151;49.086;33.418;2024-02-23T01:43:38;100854.41;;;-1.43;63.36
74578;BME280;75151;49.086;33.418;2024-02-23T01:46:05;100864.31;;;-0.75;63.94
74578;BME280;75151;49.086;33.418;2024-02-23T01:48:32;100863.00;;;-1.51;64.60
74578;BME280;75151;49.086;33.418;2024-02-23T01:51:00;100860.06;;;-1.03;63.44
74578;BME280;75151;49.086;33.418;2024-02-23T01:53:27;100867.09;;;-0.50;60.71
74578;BME280;75151;49.086;33.418;2024-02-23T01:55:54;100856.75;;;-0.68;63.42
74578;BME280;75151;49.086;33.418;2024-02-23T01:58:21;100863.56;;;-0.56;62.32
74578;BME280;75151;49.086;33.418;2024-02-23T02:00:48;100869.56;;;-1.05;61.10
74578;BME280;75151;49.086;33.418;2024-02-23T02:03:15;100862.66;;;-0.76;60.98
74578;BME280;75151;49.086;33.418;2024-02-23T02:05:42;100868.06;;;-0.81;62.68
74578;BME280;75151;49.086;33.418;2024-02-23T02:08:11;100865.00;;;-1.00;62.07
74578;BME280;75151;49.086;33.418;2024-02-23T02:10:38;100860.28;;;-0.68;62.66
74578;BME280;75151;49.086;33.418;2024-02-23T02:13:05;100850.59;;;-0.43;63.13
74578;BME280;75151;49.086;33.418;2024-02-23T02:15:32;100860.94;;;-0.25;61.87
74578;BME280;75151;49.086;33.418;2024-02-23T02:17:59;100870.91;;;-0.51;61.53
74578;BME280;75151;49.086;33.418;2024-02-23T02:20:27;100856.81;;;-0.48;62.34
74578;BME280;75151;49.086;33.418;2024-02-23T02:22:55;100860.56;;;-0.64;60.10
74578;BME280;75151;49.086;33.418;2024-02-23T02:25:22;100868.19;;;-0.51;60.82
74578;BME280;75151;49.086;33.418;2024-02-23T02:27:48;100860.94;;;-0.35;60.64
74578;BME280;75151;49.086;33.418;2024-02-23T02:30:15;100863.41;;;-0.19;59.35
74578;BME280;75151;49.086;33.418;2024-02-23T02:32:42;100864.44;;;-0.45;59.67
74578;BME280;75151;49.086;33.418;2024-02-23T02:35:12;100868.28;;;-0.21;57.67
74578;BME280;75151;49.086;33.418;2024-02-23T02:37:39;100858.53;;;-0.17;60.81
74578;BME280;75151;49.086;33.418;2024-02-23T02:40:07;100873.22;;;0.02;59.51
74578;BME280;75151;49.086;33.418;2024-02-23T02:42:34;100874.38;;;-1.12;60.06
74578;BME280;75151;49.086;33.418;2024-02-23T02:45:01;100878.25;;;-0.41;59.51
74578;BME280;75151;49.086;33.418;2024-02-23T02:47:29;100867.69;;;-0.33;60.85
74578;BME280;75151;49.086;33.418;2024-02-23T02:49:57;100882.59;;;-0.40;58.27
74578;BME280;75151;49.086;33.418;2024-02-23T02:52:23;100870.75;;;-0.09;58.71
74578;BME280;75151;49.086;33.418;2024-02-23T02:54:50;100877.88;;;-0.65;58.30
74578;BME280;75151;49.086;33.418;2024-02-23T02:57:17;100871.72;;;-1.07;60.67
74578;BME280;75151;49.086;33.418;2024-02-23T02:59:44;100868.59;;;-0.12;58.57
74578;BME280;75151;49.086;33.418;2024-02-23T03:02:12;100883.97;;;-0.43;59.53
74578;BME280;75151;49.086;33.418;2024-02-23T03:04:39;100882.59;;;-0.45;57.54
74578;BME280;75151;49.086;33.418;2024-02-23T03:07:06;100874.78;;;-0.27;58.22
74578;BME280;75151;49.086;33.418;2024-02-23T03:09:32;100877.06;;;0.31;56.24
74578;BME280;75151;49.086;33.418;2024-02-23T03:11:59;100872.75;;;0.10;55.82
74578;BME280;75151;49.086;33.418;2024-02-23T03:14:26;100863.44;;;0.01;55.34
74578;BME280;75151;49.086;33.418;2024-02-23T03:16:53;100887.72;;;-0.49;57.06
74578;BME280;75151;49.086;33.418;2024-02-23T03:19:20;100867.34;;;-0.62;56.84
74578;BME280;75151;49.086;33.418;2024-02-23T03:21:49;100873.56;;;-0.61;57.06
74578;BME280;75151;49.086;33.418;2024-02-23T03:24:16;100871.88;;;-0.77;57.11
74578;BME280;75151;49.086;33.418;2024-02-23T03:26:43;100866.72;;;-0.07;56.70
74578;BME280;75151;49.086;33.418;2024-02-23T03:29:10;100857.13;;;-0.34;57.54
74578;BME280;75151;49.086;33.418;2024-02-23T03:31:37;100866.63;;;-0.27;57.49
74578;BME280;75151;49.086;33.418;2024-02-23T03:34:04;100869.91;;;-0.25;56.40
74578;BME280;75151;49.086;33.418;2024-02-23T03:36:31;100868.97;;;0.62;55.26
74578;BME280;75151;49.086;33.418;2024-02-23T03:38:57;100868.91;;;-1.22;56.35
74578;BME280;75151;49.086;33.418;2024-02-23T03:41:24;100874.03;;;-0.02;57.05
74578;BME280;75151;49.086;33.418;2024-02-23T03:43:51;100871.84;;;-0.00;56.91
74578;BME280;75151;49.086;33.418;2024-02-23T03:46:18;100870.97;;;-0.36;56.46
74578;BME280;75151;49.086;33.418;2024-02-23T03:48:46;100874.31;;;0.06;55.92
74578;BME280;75151;49.086;33.418;2024-02-23T03:51:13;100869.81;;;-0.50;56.28
74578;BME280;75151;49.086;33.418;2024-02-23T03:53:40;100866.41;;;-0.87;56.44
74578;BME280;75151;49.086;33.418;2024-02-23T03:56:06;100868.94;;;0.52;55.86
74578;BME280;75151;49.086;33.418;2024-02-23T03:58:33;100874.44;;;-1.02;58.29
74578;BME280;75151;49.086;33.418;2024-02-23T04:01:00;100863.16;;;-0.02;56.00
74578;BME280;75151;49.086;33.418;2024-02-23T04:03:27;100856.44;;;0.46;54.38
74578;BME280;75151;49.086;33.418;2024-02-23T04:05:54;100865.41;;;0.16;54.24
74578;BME280;75151;49.086;33.418;2024-02-23T04:08:21;100859.50;;;-0.53;56.15
74578;BME280;75151;49.086;33.418;2024-02-23T04:10:48;100843.41;;;0.22;56.53
74578;BME280;75151;49.086;33.418;2024-02-23T04:13:15;100849.00;;;-0.34;56.30
74578;BME280;75151;49.086;33.418;2024-02-23T04:15:44;100844.34;;;-0.49;56.66
74578;BME280;75151;49.086;33.418;2024-02-23T04:18:11;100869.03;;;-0.45;57.98
74578;BME280;75151;49.086;33.418;2024-02-23T04:20:38;100870.06;;;-0.62;57.82
74578;BME280;75151;49.086;33.418;2024-02-23T04:23:05;100875.72;;;-0.68;58.73
74578;BME280;75151;49.086;33.418;2024-02-23T04:25:32;100870.25;;;-1.20;59.36
74578;BME280;75151;49.086;33.418;2024-02-23T04:27:58;100885.22;;;-0.66;60.53
74578;BME280;75151;49.086;33.418;2024-02-23T04:30:25;100889.00;;;-0.67;60.07
74578;BME280;75151;49.086;33.418;2024-02-23T04:32:52;100888.47;;;-1.10;60.60
74578;BME280;75151;49.086;33.418;2024-02-23T04:35:19;100890.63;;;0.11;56.38
74578;BME280;75151;49.086;33.418;2024-02-23T04:37:46;100887.53;;;-0.89;58.37
74578;BME280;75151;49.086;33.418;2024-02-23T04:40:13;100889.59;;;0.73;56.35
74578;BME280;75151;49.086;33.418;2024-02-23T04:42:40;100890.03;;;-0.73;58.47
74578;BME280;75151;49.086;33.418;2024-02-23T04:45:07;100896.47;;;-0.37;59.50
74578;BME280;75151;49.086;33.418;2024-02-23T04:47:34;100899.50;;;-0.80;58.63
74578;BME280;75151;49.086;33.418;2024-02-23T04:50:01;100893.16;;;-0.49;59.10
74578;BME280;75151;49.086;33.418;2024-02-23T04:52:30;100899.16;;;-0.94;59.04
74578;BME280;75151;49.086;33.418;2024-02-23T04:54:57;100903.22;;;-1.33;61.07
74578;BME280;75151;49.086;33.418;2024-02-23T04:57:24;100901.78;;;-0.57;58.48
74578;BME280;75151;49.086;33.418;2024-02-23T04:59:51;100894.81;;;-0.43;58.96
74578;BME280;75151;49.086;33.418;2024-02-23T05:02:17;100893.34;;;0.16;57.44
74578;BME280;75151;49.086;33.418;2024-02-23T05:04:45;100897.88;;;-0.81;58.95
74578;BME280;75151;49.086;33.418;2024-02-23T05:07:13;100898.66;;;-0.86;59.67
74578;BME280;75151;49.086;33.418;2024-02-23T05:09:39;100898.81;;;0.21;55.00
74578;BME280;75151;49.086;33.418;2024-02-23T05:12:08;100891.63;;;-0.20;55.65
74578;BME280;75151;49.086;33.418;2024-02-23T05:14:36;100901.25;;;0.18;56.86
74578;BME280;75151;49.086;33.418;2024-02-23T05:17:03;100897.16;;;0.20;55.13
74578;BME280;75151;49.086;33.418;2024-02-23T05:19:30;100894.94;;;-0.03;55.55
74578;BME280;75151;49.086;33.418;2024-02-23T05:21:57;100905.72;;;-0.23;57.19
74578;BME280;75151;49.086;33.418;2024-02-23T05:24:23;100893.81;;;-0.17;56.43
74578;BME280;75151;49.086;33.418;2024-02-23T05:26:50;100903.44;;;-0.51;56.90
74578;BME280;75151;49.086;33.418;2024-02-23T05:29:17;100895.00;;;0.17;54.25
74578;BME280;75151;49.086;33.418;2024-02-23T05:31:47;100912.78;;;-0.22;54.93
74578;BME280;75151;49.086;33.418;2024-02-23T05:34:15;100903.09;;;0.07;56.00
74578;BME280;75151;49.086;33.418;2024-02-23T05:36:43;100905.94;;;-0.34;56.68
74578;BME280;75151;49.086;33.418;2024-02-23T05:39:09;100905.22;;;-0.15;55.27
74578;BME280;75151;49.086;33.418;2024-02-23T05:41:36;100906.59;;;-0.07;56.23
74578;BME280;75151;49.086;33.418;2024-02-23T05:44:04;100903.06;;;-0.08;55.59
74578;BME280;75151;49.086;33.418;2024-02-23T05:46:33;100906.53;;;-0.27;55.60
74578;BME280;75151;49.086;33.418;2024-02-23T05:49:01;100906.66;;;0.28;55.44
74578;BME280;75151;49.086;33.418;2024-02-23T05:51:29;100907.50;;;0.43;54.48
74578;BME280;75151;49.086;33.418;2024-02-23T05:54:00;100912.47;;;-0.30;56.48
74578;BME280;75151;49.086;33.418;2024-02-23T05:56:26;100926.38;;;-0.12;55.34
74578;BME280;75151;49.086;33.418;2024-02-23T05:58:53;100915.66;;;0.54;54.23
74578;BME280;75151;49.086;33.418;2024-02-23T06:01:20;100922.34;;;-0.71;54.69
74578;BME280;75151;49.086;33.418;2024-02-23T06:03:47;100930.72;;;-0.11;54.65
74578;BME280;75151;49.086;33.418;2024-02-23T06:06:14;100937.78;;;-0.10;55.33
74578;BME280;75151;49.086;33.418;2024-02-23T06:08:43;100942.84;;;0.54;54.25
74578;BME280;75151;49.086;33.418;2024-02-23T06:11:10;100949.44;;;-0.71;55.38
74578;BME280;75151;49.086;33.418;2024-02-23T06:13:38;100943.91;;;0.53;53.83
74578;BME280;75151;49.086;33.418;2024-02-23T06:16:09;100939.78;;;1.25;52.40
74578;BME280;75151;49.086;33.418;2024-02-23T06:18:36;100937.13;;;0.75;54.14
74578;BME280;75151;49.086;33.418;2024-02-23T06:21:14;100945.53;;;0.38;54.63
74578;BME280;75151;49.086;33.418;2024-02-23T06:23:41;100934.88;;;-1.02;57.69
74578;BME280;75151;49.086;33.418;2024-02-23T06:26:08;100944.31;;;-0.06;54.31
74578;BME280;75151;49.086;33.418;2024-02-23T06:28:35;100948.56;;;-0.25;55.40
74578;BME280;75151;49.086;33.418;2024-02-23T06:31:06;100940.88;;;0.19;53.55
74578;BME280;75151;49.086;33.418;2024-02-23T06:33:33;100952.06;;;0.68;54.47
74578;BME280;75151;49.086;33.418;2024-02-23T06:36:00;100945.72;;;-0.55;54.81
74578;BME280;75151;49.086;33.418;2024-02-23T06:38:27;100972.16;;;0.52;53.13
74578;BME280;75151;49.086;33.418;2024-02-23T06:40:55;100961.97;;;0.02;54.50
74578;BME280;75151;49.086;33.418;2024-02-23T06:43:23;100955.81;;;0.26;54.53
74578;BME280;75151;49.086;33.418;2024-02-23T06:45:50;100959.81;;;-0.58;54.74
74578;BME280;75151;49.086;33.418;2024-02-23T06:48:17;100961.84;;;-0.33;56.50
74578;BME280;75151;49.086;33.418;2024-02-23T06:50:44;100974.09;;;0.76;53.30
74578;BME280;75151;49.086;33.418;2024-02-23T06:53:10;100975.13;;;1.41;52.29
74578;BME280;75151;49.086;33.418;2024-02-23T06:55:37;100966.44;;;0.58;52.82
74578;BME280;75151;49.086;33.418;2024-02-23T06:58:04;100968.91;;;0.60;54.37
74578;BME280;75151;49.086;33.418;2024-02-23T07:00:34;100977.56;;;0.41;54.46
74578;BME280;75151;49.086;33.418;2024-02-23T07:03:01;100978.66;;;0.40;53.70
74578;BME280;75151;49.086;33.418;2024-02-23T07:05:30;100975.44;;;0.79;52.96
74578;BME280;75151;49.086;33.418;2024-02-23T07:07:57;100972.16;;;0.72;53.42
74578;BME280;75151;49.086;33.418;2024-02-23T07:10:24;100982.50;;;-0.27;55.56
74578;BME280;75151;49.086;33.418;2024-02-23T07:12:52;100976.09;;;-0.01;56.20
74578;BME280;75151;49.086;33.418;2024-02-23T07:15:22;100969.41;;;0.47;54.90
74578;BME280;75151;49.086;33.418;2024-02-23T07:17:54;100979.09;;;0.07;56.03
74578;BME280;75151;49.086;33.418;2024-02-23T07:20:21;100967.88;;;-0.16;55.58
74578;BME280;75151;49.086;33.418;2024-02-23T07:22:48;100982.06;;;0.01;56.41
74578;BME280;75151;49.086;33.418;2024-02-23T07:25:18;100971.28;;;0.16;54.58
74578;BME280;75151;49.086;33.418;2024-02-23T07:27:48;100963.75;;;0.73;53.41
74578;BME280;75151;49.086;33.418;2024-02-23T07:30:16;100966.44;;;0.43;54.73
74578;BME280;75151;49.086;33.418;2024-02-23T07:32:44;100964.84;;;0.57;54.70
74578;BME280;75151;49.086;33.418;2024-02-23T07:35:15;100956.41;;;0.79;52.56
74578;BME280;75151;49.086;33.418;2024-02-23T07:37:42;100962.13;;;0.72;53.20
74578;BME280;75151;49.086;33.418;2024-02-23T07:40:09;100960.22;;;0.73;53.68
74578;BME280;75151;49.086;33.418;2024-02-23T07:42:36;100965.91;;;0.86;53.73
74578;BME280;75151;49.086;33.418;2024-02-23T07:45:06;100966.69;;;1.32;50.92
74578;BME280;75151;49.086;33.418;2024-02-23T07:47:33;100982.56;;;-0.02;55.28
74578;BME280;75151;49.086;33.418;2024-02-23T07:50:00;100977.88;;;0.90;53.19
74578;BME280;75151;49.086;33.418;2024-02-23T07:52:27;100982.91;;;0.06;54.62
74578;BME280;75151;49.086;33.418;2024-02-23T07:54:54;100973.53;;;0.79;53.37
74578;BME280;75151;49.086;33.418;2024-02-23T07:57:21;100976.28;;;0.84;52.70
74578;BME280;75151;49.086;33.418;2024-02-23T07:59:48;100970.22;;;1.32;52.26
74578;BME280;75151;49.086;33.418;2024-02-23T08:02:15;100983.56;;;1.29;52.05
74578;BME280;75151;49.086;33.418;2024-02-23T08:04:42;100969.44;;;1.02;53.31
74578;BME280;75151;49.086;33.418;2024-02-23T08:07:10;100973.72;;;1.53;51.26
74578;BME280;75151;49.086;33.418;2024-02-23T08:09:37;100977.28;;;1.38;52.42
74578;BME280;75151;49.086;33.418;2024-02-23T08:12:04;100991.16;;;1.42;51.34
74578;BME280;75151;49.086;33.418;2024-02-23T08:14:31;100985.09;;;1.80;51.88
74578;BME280;75151;49.086;33.418;2024-02-23T08:16:59;100991.41;;;0.30;53.15
74578;BME280;75151;49.086;33.418;2024-02-23T08:19:26;100984.38;;;1.19;52.70
74578;BME280;75151;49.086;33.418;2024-02-23T08:21:53;100990.28;;;1.77;51.17
74578;BME280;75151;49.086;33.418;2024-02-23T08:24:20;100988.47;;;1.12;51.34
74578;BME280;75151;49.086;33.418;2024-02-23T08:26:47;100989.47;;;1.76;50.96
74578;BME280;75151;49.086;33.418;2024-02-23T08:29:14;100992.28;;;0.81;53.50
74578;BME280;75151;49.086;33.418;2024-02-23T08:31:41;100988.75;;;1.05;53.67
74578;BME280;75151;49.086;33.418;2024-02-23T08:34:08;100978.13;;;1.39;52.51
74578;BME280;75151;49.086;33.418;2024-02-23T08:36:35;100980.34;;;0.77;52.82
74578;BME280;75151;49.086;33.418;2024-02-23T08:39:03;100981.28;;;1.76;51.00
74578;BME280;75151;49.086;33.418;2024-02-23T08:41:30;100982.91;;;1.82;50.99
74578;BME280;75151;49.086;33.418;2024-02-23T08:43:57;100981.66;;;1.19;52.75
74578;BME280;75151;49.086;33.418;2024-02-23T08:46:24;100991.94;;;1.48;53.05
74578;BME280;75151;49.086;33.418;2024-02-23T08:48:50;100993.63;;;0.53;54.41
74578;BME280;75151;49.086;33.418;2024-02-23T08:51:17;100991.19;;;0.87;54.60
74578;BME280;75151;49.086;33.418;2024-02-23T08:53:44;100999.34;;;0.67;53.86
74578;BME280;75151;49.086;33.418;2024-02-23T08:56:12;101007.50;;;1.37;52.05
74578;BME280;75151;49.086;33.418;2024-02-23T08:58:39;100999.88;;;1.19;53.50
74578;BME280;75151;49.086;33.418;2024-02-23T09:01:05;101003.34;;;1.70;52.44
74578;BME280;75151;49.086;33.418;2024-02-23T09:03:32;101008.03;;;1.34;52.28
74578;BME280;75151;49.086;33.418;2024-02-23T09:05:59;101010.16;;;1.72;51.70
74578;BME280;75151;49.086;33.418;2024-02-23T09:08:27;101015.13;;;0.80;53.60
74578;BME280;75151;49.086;33.418;2024-02-23T09:10:53;101016.72;;;0.66;55.72
74578;BME280;75151;49.086;33.418;2024-02-23T09:13:20;101013.47;;;1.39;53.39
74578;BME280;75151;49.086;33.418;2024-02-23T09:15:47;101011.00;;;1.37;54.19
74578;BME280;75151;49.086;33.418;2024-02-23T09:18:14;101016.19;;;1.04;53.62
74578;BME280;75151;49.086;33.418;2024-02-23T09:20:41;101012.09;;;1.36;53.65
74578;BME280;75151;49.086;33.418;2024-02-23T09:23:08;101023.28;;;0.90;53.53
74578;BME280;75151;49.086;33.418;2024-02-23T09:25:35;101000.97;;;0.83;55.08
74578;BME280;75151;49.086;33.418;2024-02-23T09:28:02;101013.16;;;1.56;52.62
74578;BME280;75151;49.086;33.418;2024-02-23T09:30:29;101014.59;;;2.22;51.15
74578;BME280;75151;49.086;33.418;2024-02-23T09:32:56;101014.84;;;2.25;51.05
74578;BME280;75151;49.086;33.418;2024-02-23T09:35:23;101015.78;;;2.55;51.31
74578;BME280;75151;49.086;33.418;2024-02-23T09:37:50;101015.72;;;2.06;52.46
74578;BME280;75151;49.086;33.418;2024-02-23T09:40:17;101018.53;;;1.86;52.21
74578;BME280;75151;49.086;33.418;2024-02-23T09:42:52;101016.16;;;2.33;51.34
74578;BME280;75151;49.086;33.418;2024-02-23T09:45:21;101011.59;;;3.01;50.60
74578;BME280;75151;49.086;33.418;2024-02-23T09:47:49;101006.63;;;3.42;48.84
74578;BME280;75151;49.086;33.418;2024-02-23T09:50:17;101002.56;;;3.39;48.82
74578;BME280;75151;49.086;33.418;2024-02-23T09:52:47;101007.09;;;2.81;50.42
74578;BME280;75151;49.086;33.418;2024-02-23T09:55:14;101004.13;;;2.83;50.61
74578;BME280;75151;49.086;33.418;2024-02-23T09:57:41;101009.94;;;2.71;49.65
74578;BME280;75151;49.086;33.418;2024-02-23T10:00:09;101011.41;;;2.54;51.08
74578;BME280;75151;49.086;33.418;2024-02-23T10:02:36;101005.88;;;2.20;50.57
74578;BME280;75151;49.086;33.418;2024-02-23T10:05:03;100999.06;;;2.17;50.09
74578;BME280;75151;49.086;33.418;2024-02-23T10:07:31;100999.03;;;2.66;50.70
74578;BME280;75151;49.086;33.418;2024-02-23T10:09:58;101010.56;;;2.04;51.65
74578;BME280;75151;49.086;33.418;2024-02-23T10:12:25;101001.94;;;1.87;52.10
74578;BME280;75151;49.086;33.418;2024-02-23T10:14:52;101008.84;;;3.06;50.11
74578;BME280;75151;49.086;33.418;2024-02-23T10:17:20;101003.06;;;3.12;49.16
74578;BME280;75151;49.086;33.418;2024-02-23T10:19:47;101000.91;;;3.38;49.38
74578;BME280;75151;49.086;33.418;2024-02-23T10:22:14;101001.34;;;2.49;50.62
74578;BME280;75151;49.086;33.418;2024-02-23T10:24:42;101001.66;;;2.81;51.33
74578;BME280;75151;49.086;33.418;2024-02-23T10:27:09;100997.91;;;2.77;50.44
74578;BME280;75151;49.086;33.418;2024-02-23T10:29:36;100996.88;;;3.59;49.51
74578;BME280;75151;49.086;33.418;2024-02-23T10:32:04;101001.28;;;4.02;47.97
74578;BME280;75151;49.086;33.418;2024-02-23T10:34:34;101001.97;;;3.42;47.68
74578;BME280;75151;49.086;33.418;2024-02-23T10:37:06;100990.91;;;2.95;49.95
74578;BME280;75151;49.086;33.418;2024-02-23T10:39:36;100997.78;;;3.26;49.34
74578;BME280;75151;49.086;33.418;2024-02-23T10:42:04;100995.78;;;2.25;51.12
74578;BME280;75151;49.086;33.418;2024-02-23T10:44:34;101000.72;;;3.58;48.41
74578;BME280;75151;49.086;33.418;2024-02-23T10:47:04;101009.44;;;3.03;50.14
74578;BME280;75151;49.086;33.418;2024-02-23T10:49:31;101009.84;;;3.72;48.26
74578;BME280;75151;49.086;33.418;2024-02-23T10:52:00;100996.34;;;3.34;47.88
74578;BME280;75151;49.086;33.418;2024-02-23T10:54:29;101001.53;;;2.96;49.67
74578;BME280;75151;49.086;33.418;2024-02-23T10:56:57;101007.25;;;4.04;48.71
74578;BME280;75151;49.086;33.418;2024-02-23T10:59:25;100986.88;;;3.26;48.79
74578;BME280;75151;49.086;33.418;2024-02-23T11:01:53;100992.50;;;3.35;48.46
74578;BME280;75151;49.086;33.418;2024-02-23T11:04:25;101005.88;;;3.60;49.15
74578;BME280;75151;49.086;33.418;2024-02-23T11:06:54;100993.16;;;3.27;50.10
74578;BME280;75151;49.086;33.418;2024-02-23T11:09:23;101007.19;;;4.33;48.00
74578;BME280;75151;49.086;33.418;2024-02-23T11:11:55;101003.75;;;4.04;49.03
74578;BME280;75151;49.086;33.418;2024-02-23T11:14:31;100995.50;;;3.04;49.26
74578;BME280;75151;49.086;33.418;2024-02-23T11:16:59;100991.44;;;3.31;48.97
74578;BME280;75151;49.086;33.418;2024-02-23T11:19:38;101005.94;;;3.78;49.08
74578;BME280;75151;49.086;33.418;2024-02-23T11:22:09;101008.38;;;4.27;47.61
74578;BME280;75151;49.086;33.418;2024-02-23T11:24:49;101009.19;;;4.28;46.73
74578;BME280;75151;49.086;33.418;2024-02-23T11:27:23;101002.16;;;3.74;47.31
74578;BME280;75151;49.086;33.418;2024-02-23T11:30:02;101003.34;;;3.92;48.15
74578;BME280;75151;49.086;33.418;2024-02-23T11:35:10;101004.25;;;4.06;48.99
74578;BME280;75151;49.086;33.418;2024-02-23T11:37:48;101003.38;;;4.53;46.58
74578;BME280;75151;49.086;33.418;2024-02-23T11:40:17;101009.66;;;4.72;47.82
74578;BME280;75151;49.086;33.418;2024-02-23T11:42:44;101002.31;;;3.64;48.67
74578;BME280;75151;49.086;33.418;2024-02-23T11:45:11;101013.69;;;3.71;48.76
74578;BME280;75151;49.086;33.418;2024-02-23T11:47:38;101006.28;;;4.93;45.46
74578;BME280;75151;49.086;33.418;2024-02-23T11:50:09;101014.53;;;4.14;47.57
74578;BME280;75151;49.086;33.418;2024-02-23T11:52:39;101017.69;;;4.82;46.62
74578;BME280;75151;49.086;33.418;2024-02-23T11:55:07;101010.63;;;4.20;47.72
74578;BME280;75151;49.086;33.418;2024-02-23T11:57:38;101015.06;;;5.09;45.23
74578;BME280;75151;49.086;33.418;2024-02-23T12:00:14;101005.00;;;3.41;48.69
74578;BME280;75151;49.086;33.418;2024-02-23T12:02:43;101011.66;;;5.17;46.53
74578;BME280;75151;49.086;33.418;2024-02-23T12:05:11;101008.31;;;4.69;47.02
74578;BME280;75151;49.086;33.418;2024-02-23T12:07:38;101006.06;;;4.15;47.11
74578;BME280;75151;49.086;33.418;2024-02-23T12:10:08;100999.78;;;5.08;46.42
74578;BME280;75151;49.086;33.418;2024-02-23T12:12:37;101007.22;;;4.09;48.28
74578;BME280;75151;49.086;33.418;2024-02-23T12:15:04;101014.56;;;3.90;47.74
74578;BME280;75151;49.086;33.418;2024-02-23T12:17:35;101001.47;;;3.64;49.34
74578;BME280;75151;49.086;33.418;2024-02-23T12:20:03;101006.44;;;4.28;47.73
74578;BME280;75151;49.086;33.418;2024-02-23T12:22:36;101004.75;;;4.32;47.91
74578;BME280;75151;49.086;33.418;2024-02-23T12:25:05;100999.44;;;4.40;48.36
74578;BME280;75151;49.086;33.418;2024-02-23T12:27:32;100997.47;;;4.22;47.74
74578;BME280;75151;49.086;33.418;2024-02-23T12:30:00;101003.28;;;5.27;45.77
74578;BME280;75151;49.086;33.418;2024-02-23T12:32:27;101003.06;;;5.83;44.49
74578;BME280;75151;49.086;33.418;2024-02-23T12:34:54;101001.00;;;5.29;45.84
74578;BME280;75151;49.086;33.418;2024-02-23T12:37:21;100994.31;;;4.15;47.52
74578;BME280;75151;49.086;33.418;2024-02-23T12:39:49;100996.78;;;5.04;45.47
74578;BME280;75151;49.086;33.418;2024-02-23T12:42:18;100992.44;;;4.53;47.36
74578;BME280;75151;49.086;33.418;2024-02-23T12:44:44;101002.44;;;5.59;45.32
74578;BME280;75151;49.086;33.418;2024-02-23T12:47:11;100996.31;;;4.84;47.61
74578;BME280;75151;49.086;33.418;2024-02-23T12:49:38;100988.09;;;4.84;47.68